createdAt,value
2022-10-11T00:03:31.313Z,17.60
2022-10-11T00:08:37.188Z,14.80
2022-10-11T00:13:42.965Z,14.60
2022-10-11T00:18:48.674Z,15.70
2022-10-11T00:23:54.435Z,13.50
2022-10-11T00:29:00.094Z,16.40
2022-10-11T00:34:06.541Z,15.00
2022-10-11T00:39:14.378Z,18.60
2022-10-11T00:44:23.704Z,15.90
2022-10-11T00:49:36.340Z,14.50
2022-10-11T00:54:45.525Z,15.60
2022-10-11T00:59:54.012Z,15.40
2022-10-11T01:05:25.097Z,17.90
2022-10-11T01:10:26.918Z,14.30
2022-10-11T01:15:40.134Z,16.30
2022-10-11T01:20:58.878Z,15.90
2022-10-11T01:26:33.347Z,18.10
2022-10-11T01:31:46.982Z,20.10
2022-10-11T01:36:58.239Z,15.00
2022-10-11T01:42:07.571Z,15.90
2022-10-11T01:47:14.073Z,18.80
2022-10-11T01:52:20.007Z,19.90
2022-10-11T01:57:59.414Z,15.00
2022-10-11T02:03:18.818Z,13.00
2022-10-11T02:08:34.350Z,15.40
2022-10-11T02:13:44.974Z,16.40
2022-10-11T02:18:52.982Z,14.60
2022-10-11T02:24:03.153Z,19.60
2022-10-11T02:29:13.096Z,14.00
2022-10-11T02:34:24.556Z,13.40
2022-10-11T02:39:37.037Z,16.00
2022-10-11T02:44:47.177Z,18.60
2022-10-11T02:49:53.186Z,17.50
2022-10-11T02:54:59.135Z,17.50
2022-10-11T03:00:06.586Z,21.50
2022-10-11T03:05:12.466Z,20.90
2022-10-11T03:10:18.433Z,18.00
2022-10-11T03:15:24.427Z,20.40
2022-10-11T03:20:30.131Z,17.30
2022-10-11T03:25:36.378Z,18.40
2022-10-11T03:30:42.179Z,17.10
2022-10-11T03:35:48.978Z,17.00
2022-10-11T03:40:54.785Z,16.90
2022-10-11T03:46:00.723Z,20.00
2022-10-11T03:51:07.008Z,18.30
2022-10-11T03:56:13.576Z,18.50
2022-10-11T04:01:20.921Z,19.40
2022-10-11T04:06:27.590Z,17.70
2022-10-11T04:11:33.468Z,18.50
2022-10-11T04:16:40.122Z,20.10
2022-10-11T04:21:45.970Z,19.70
2022-10-11T04:26:51.925Z,18.00
2022-10-11T04:31:57.842Z,37.70
2022-10-11T04:37:03.714Z,17.40
2022-10-11T04:42:09.659Z,14.70
2022-10-11T04:47:15.578Z,22.70
2022-10-11T04:52:25.521Z,21.20
2022-10-11T04:57:31.964Z,25.20
2022-10-11T05:02:37.826Z,23.60
2022-10-11T05:07:44.261Z,26.00
2022-10-11T05:12:50.215Z,19.60
2022-10-11T05:17:56.573Z,25.80
2022-10-11T05:23:02.493Z,24.50
2022-10-11T05:28:08.508Z,21.40
2022-10-11T05:33:14.416Z,22.10
2022-10-11T05:38:20.327Z,29.60
2022-10-11T05:43:26.751Z,30.10
2022-10-11T05:48:32.546Z,28.60
2022-10-11T05:53:38.772Z,27.80
2022-10-11T05:58:44.960Z,30.30
2022-10-11T06:03:51.602Z,27.40
2022-10-11T06:08:57.536Z,26.20
2022-10-11T06:14:03.351Z,20.80
2022-10-11T06:19:09.408Z,17.60
2022-10-11T06:24:15.566Z,20.20
2022-10-11T06:29:22.306Z,17.70
2022-10-11T06:34:28.410Z,14.80
2022-10-11T06:39:35.024Z,15.80
2022-10-11T06:44:40.998Z,23.80
2022-10-11T06:49:46.890Z,17.80
2022-10-11T06:54:52.722Z,20.40
2022-10-11T06:59:58.559Z,15.00
2022-10-11T07:05:04.661Z,14.30
2022-10-11T07:10:11.533Z,14.90
2022-10-11T07:15:17.687Z,12.40
2022-10-11T07:20:23.674Z,12.50
2022-10-11T07:25:29.626Z,14.20
2022-10-11T07:30:38.854Z,16.10
2022-10-11T07:35:48.180Z,15.20
2022-10-11T07:40:54.488Z,15.40
2022-10-11T07:46:04.829Z,15.50
2022-10-11T07:51:13.120Z,14.50
2022-10-11T07:56:21.954Z,17.20
2022-10-11T08:01:28.829Z,16.60
2022-10-11T08:06:36.718Z,18.30
2022-10-11T08:11:43.632Z,14.50
2022-10-11T08:16:50.284Z,15.50
2022-10-11T08:21:56.115Z,16.40
2022-10-11T08:27:01.942Z,15.80
2022-10-11T08:32:11.872Z,16.20
2022-10-11T08:37:17.620Z,14.90
2022-10-11T08:42:35.177Z,21.50
2022-10-11T08:47:44.685Z,18.40
2022-10-11T08:52:53.833Z,15.10
2022-10-11T08:58:00.873Z,14.00
2022-10-11T09:03:21.649Z,13.90
2022-10-11T09:08:37.110Z,13.10
2022-10-11T09:14:06.617Z,14.00
2022-10-11T09:19:37.363Z,11.80
2022-10-11T09:25:01.662Z,10.20
2022-10-11T09:30:14.453Z,11.20
2022-10-11T09:35:22.552Z,12.30
2022-10-11T09:40:40.202Z,11.70
2022-10-11T09:45:49.525Z,12.30
2022-10-11T09:50:59.176Z,9.30
2022-10-11T09:56:06.762Z,7.00
2022-10-11T10:01:22.441Z,10.50
2022-10-11T10:06:28.794Z,5.50
2022-10-11T10:11:38.865Z,9.50
2022-10-11T10:16:45.910Z,8.50
2022-10-11T10:21:55.131Z,6.60
2022-10-11T10:27:19.024Z,7.40
2022-10-11T10:32:32.372Z,8.20
2022-10-11T10:37:42.347Z,6.60
2022-10-11T10:42:48.539Z,9.80
2022-10-11T10:48:14.861Z,6.60
2022-10-11T10:53:27.719Z,5.80
2022-10-11T10:58:52.274Z,6.10
2022-10-11T11:04:06.943Z,8.70
2022-10-11T11:09:28.511Z,14.20
2022-10-11T11:14:46.609Z,9.30
2022-10-11T11:20:08.753Z,8.20
2022-10-11T11:25:29.277Z,4.20
2022-10-11T11:30:45.157Z,4.10
2022-10-11T11:35:55.811Z,16.00
2022-10-11T11:41:06.376Z,7.90
2022-10-11T11:51:30.477Z,9.70
2022-10-11T11:56:51.957Z,6.40
2022-10-11T12:02:13.265Z,7.70
2022-10-11T12:07:22.245Z,6.70
2022-10-11T12:12:32.347Z,8.50
2022-10-11T12:18:02.598Z,6.60
2022-10-11T12:23:41.945Z,5.90
2022-10-11T12:29:03.741Z,6.00
2022-10-11T12:34:33.738Z,4.30
2022-10-11T12:39:47.094Z,8.50
2022-10-11T12:45:30.027Z,10.80
2022-10-11T12:50:46.492Z,5.80
2022-10-11T12:56:01.202Z,5.80
2022-10-11T13:01:22.071Z,7.40
2022-10-11T13:06:32.013Z,7.60
2022-10-11T13:11:46.625Z,5.10
2022-10-11T13:17:16.817Z,9.00
2022-10-11T13:22:24.467Z,6.40
2022-10-11T13:27:30.530Z,9.90
2022-10-11T13:32:37.782Z,8.10
2022-10-11T13:37:47.402Z,8.40
2022-10-11T13:42:54.990Z,7.60
2022-10-11T13:48:01.017Z,11.00
2022-10-11T13:53:24.985Z,10.70
2022-10-11T13:58:38.609Z,15.80
2022-10-11T14:03:47.006Z,10.00
2022-10-11T14:08:56.159Z,7.80
2022-10-11T14:14:22.127Z,8.60
2022-10-11T14:19:28.171Z,9.90
2022-10-11T14:24:34.243Z,13.40
2022-10-11T14:29:55.558Z,11.90
2022-10-11T14:35:17.620Z,8.00
2022-10-11T14:40:25.979Z,6.00
2022-10-11T14:45:32.027Z,8.10
2022-10-11T14:50:42.704Z,6.20
2022-10-11T14:55:49.068Z,7.00
2022-10-11T15:00:55.133Z,5.80
2022-10-11T15:06:00.993Z,8.60
2022-10-11T15:11:07.070Z,10.10
2022-10-11T15:16:15.025Z,7.50
2022-10-11T15:21:23.887Z,9.70
2022-10-11T15:26:30.906Z,5.00
2022-10-11T15:31:36.823Z,5.90
2022-10-11T15:36:42.779Z,7.60
2022-10-11T15:41:48.521Z,6.80
2022-10-11T15:46:54.449Z,7.60
2022-10-11T15:52:00.234Z,8.80
2022-10-11T15:57:06.373Z,7.60
2022-10-11T16:02:15.258Z,12.00
2022-10-11T16:07:20.925Z,12.10
2022-10-11T16:12:26.847Z,12.30
2022-10-11T16:17:32.493Z,10.40
2022-10-11T16:22:38.495Z,11.40
2022-10-11T16:27:44.618Z,14.70
2022-10-11T16:32:50.507Z,10.70
2022-10-11T16:37:56.397Z,21.40
2022-10-11T16:43:07.443Z,19.60
2022-10-11T16:48:13.957Z,18.50
2022-10-11T16:53:21.705Z,16.60
2022-10-11T16:58:28.268Z,25.30
2022-10-11T17:03:34.214Z,18.40
2022-10-11T17:08:39.942Z,13.80
2022-10-11T17:13:46.172Z,11.80
2022-10-11T17:18:52.171Z,12.70
2022-10-11T17:23:58.205Z,14.70
2022-10-11T17:29:04.423Z,9.50
2022-10-11T17:34:12.234Z,16.50
2022-10-11T17:39:20.820Z,15.60
2022-10-11T17:44:26.811Z,18.20
2022-10-11T17:49:33.171Z,15.10
2022-10-11T17:54:39.241Z,14.40
2022-10-11T17:59:45.013Z,13.90
2022-10-11T18:04:50.684Z,14.10
2022-10-11T18:09:56.997Z,12.90
2022-10-11T18:15:03.178Z,10.90
2022-10-11T18:20:10.860Z,12.00
2022-10-11T18:25:17.410Z,14.30
2022-10-11T18:30:23.241Z,11.40
2022-10-11T18:35:29.362Z,12.30
2022-10-11T18:40:42.249Z,17.30
2022-10-11T18:45:50.717Z,13.20
2022-10-11T18:51:08.124Z,10.90
2022-10-11T18:56:15.947Z,11.40
2022-10-11T19:01:23.517Z,11.30
2022-10-11T19:06:31.942Z,13.40
2022-10-11T19:11:38.803Z,12.60
2022-10-11T19:16:49.589Z,11.70
2022-10-11T19:21:55.893Z,9.80
2022-10-11T19:27:03.183Z,13.70
2022-10-11T19:32:09.456Z,15.50
2022-10-11T19:37:16.258Z,14.80
2022-10-11T19:42:22.140Z,16.50
2022-10-11T19:47:27.973Z,15.20
2022-10-11T19:52:34.227Z,13.70
2022-10-11T19:57:41.188Z,16.00
2022-10-11T20:02:47.165Z,15.30
2022-10-11T20:07:53.002Z,25.80
2022-10-11T20:12:58.888Z,30.30
2022-10-11T20:18:04.931Z,35.60
2022-10-11T20:23:14.767Z,24.00
2022-10-11T20:28:23.704Z,40.10
2022-10-11T20:33:31.777Z,40.90
2022-10-11T20:38:39.649Z,55.90
2022-10-11T20:43:45.692Z,45.50
2022-10-11T20:48:55.483Z,47.50
2022-10-11T20:54:05.117Z,43.60
2022-10-11T20:59:11.634Z,60.10
2022-10-11T21:04:20.503Z,46.90
2022-10-11T21:09:26.285Z,49.80
2022-10-11T21:14:32.237Z,47.90
2022-10-11T21:19:38.206Z,54.40
2022-10-11T21:24:44.606Z,74.70
2022-10-11T21:29:50.579Z,73.80
2022-10-11T21:34:56.425Z,78.10
2022-10-11T21:40:02.299Z,94.40
2022-10-11T21:45:08.765Z,80.70
2022-10-11T21:50:14.685Z,92.00
2022-10-11T21:55:20.661Z,90.80
2022-10-11T22:00:26.610Z,93.50
2022-10-11T22:05:32.460Z,83.20
2022-10-11T22:10:38.296Z,93.40
2022-10-11T22:15:44.286Z,94.60
2022-10-11T22:20:50.132Z,87.70
2022-10-11T22:25:56.235Z,75.70
2022-10-11T22:31:02.411Z,78.80
2022-10-11T22:36:11.847Z,78.40
2022-10-11T22:41:17.839Z,80.20
2022-10-11T22:46:23.588Z,88.40
2022-10-11T22:51:29.564Z,78.00
2022-10-11T22:56:35.364Z,76.00
2022-10-11T23:01:41.376Z,75.70
2022-10-11T23:06:47.433Z,76.70
2022-10-11T23:11:54.248Z,78.40
2022-10-11T23:17:00.132Z,65.90
2022-10-11T23:22:06.235Z,64.40
2022-10-11T23:27:12.413Z,67.20
2022-10-11T23:32:18.436Z,64.10
2022-10-11T23:37:24.347Z,62.00
2022-10-11T23:42:30.325Z,59.70
2022-10-11T23:47:36.613Z,55.40
2022-10-11T23:52:43.058Z,62.00
2022-10-11T23:57:48.890Z,59.20
